Time;durP1;ratioP1;P1;durP2;ratioP2;P2;SDS_P1;SDS_P2;PMS_P1;PMS_P2;Temp;Humidity;BMP_temperature;BMP_pressure;BME280_temperature;BME280_humidity;BME280_pressure;Samples;Min_cycle;Max_cycle;Signal;HPM_P1;HPM_P2
2023/02/10 00:01:23;;;;;;;15.52;10.50;;;;;7.00;103326.00;;;;5064816;28;20192;-73
2023/02/10 00:03:51;;;;;;;16.15;10.20;;;;;7.00;103315.00;;;;5058588;28;20191;-73
2023/02/10 00:06:20;;;;;;;16.33;10.82;;;;;7.00;103319.00;;;;5051012;28;20567;-73
2023/02/10 00:08:48;;;;;;;19.48;10.77;;;;;7.00;103314.00;;;;5059429;28;20188;-73
2023/02/10 00:11:16;;;;;;;15.13;10.40;;;;;7.00;103315.00;;;;5069964;28;20221;-73
2023/02/10 00:13:44;;;;;;;17.00;10.75;;;;;7.00;103312.00;;;;5067678;28;20206;-73
2023/02/10 00:16:14;;;;;;;15.75;11.02;;;;;6.90;103313.00;;;;5055349;28;20207;-72
2023/02/10 00:18:43;;;;;;;17.55;10.80;;;;;6.90;103318.00;;;;5049932;28;20693;-72
2023/02/10 00:21:14;;;;;;;14.20;10.30;;;;;6.90;103322.00;;;;5054327;28;20552;-71
2023/02/10 00:23:42;;;;;;;14.15;9.82;;;;;6.90;103324.00;;;;5048493;28;20202;-72
2023/02/10 00:26:12;;;;;;;13.57;9.60;;;;;6.80;103318.00;;;;5065550;28;20203;-72
2023/02/10 00:28:39;;;;;;;13.00;9.25;;;;;6.90;103320.00;;;;5056176;28;20204;-72
2023/02/10 00:31:07;;;;;;;17.88;11.02;;;;;6.80;103320.00;;;;5052395;28;20195;-71
2023/02/10 00:33:34;;;;;;;14.55;9.48;;;;;6.80;103325.00;;;;5067232;28;20665;-71
2023/02/10 00:36:06;;;;;;;13.63;9.20;;;;;6.80;103320.00;;;;5066743;28;20199;-72
2023/02/10 00:38:34;;;;;;;19.58;10.73;;;;;6.80;103317.00;;;;5052994;28;20223;-71
2023/02/10 00:41:04;;;;;;;16.73;10.98;;;;;6.80;103323.00;;;;5053835;28;20202;-72
2023/02/10 00:43:31;;;;;;;16.00;9.90;;;;;6.80;103315.00;;;;5065071;28;20202;-72
2023/02/10 00:45:59;;;;;;;16.35;10.07;;;;;6.80;103325.00;;;;5055249;28;20576;-71
2023/02/10 00:48:26;;;;;;;15.98;9.65;;;;;6.80;103329.00;;;;5055875;28;20203;-71
2023/02/10 00:50:53;;;;;;;21.25;11.27;;;;;6.80;103322.00;;;;5051181;28;20198;-72
2023/02/10 00:53:22;;;;;;;14.43;9.63;;;;;6.80;103329.00;;;;5057247;28;20195;-72
2023/02/10 00:55:49;;;;;;;14.30;9.80;;;;;6.80;103330.00;;;;5055384;28;20207;-72
2023/02/10 00:58:16;;;;;;;16.75;11.18;;;;;6.80;103330.00;;;;5054414;28;20227;-72
2023/02/10 01:00:44;;;;;;;18.08;9.13;;;;;6.80;103337.00;;;;5056753;28;20211;-72
2023/02/10 01:03:11;;;;;;;17.60;10.38;;;;;6.80;103342.00;;;;5066053;28;20191;-72
2023/02/10 01:05:38;;;;;;;15.65;10.18;;;;;6.80;103337.00;;;;5066288;28;20195;-72
2023/02/10 01:08:06;;;;;;;16.70;10.50;;;;;6.80;103336.00;;;;5058951;28;20199;-72
2023/02/10 01:10:35;;;;;;;15.52;9.52;;;;;6.80;103341.00;;;;5056351;28;20203;-72
2023/02/10 01:13:02;;;;;;;16.80;10.10;;;;;6.80;103333.00;;;;5059627;28;20191;-72
2023/02/10 01:15:30;;;;;;;15.15;9.73;;;;;6.80;103328.00;;;;5058111;28;20202;-73
2023/02/10 01:17:57;;;;;;;16.25;9.18;;;;;6.80;103338.00;;;;5059882;28;20203;-72
2023/02/10 01:20:24;;;;;;;13.38;9.40;;;;;6.80;103331.00;;;;5056520;28;20214;-72
2023/02/10 01:22:52;;;;;;;17.08;9.90;;;;;6.80;103326.00;;;;5053350;28;20203;-72
2023/02/10 01:25:19;;;;;;;14.07;9.77;;;;;6.80;103336.00;;;;5057765;28;20736;-71
2023/02/10 01:27:48;;;;;;;15.52;9.68;;;;;6.80;103345.00;;;;5052770;28;20662;-72
2023/02/10 01:30:15;;;;;;;12.75;8.77;;;;;6.80;103352.00;;;;5063349;28;20661;-72
2023/02/10 01:32:42;;;;;;;14.27;9.00;;;;;6.80;103352.00;;;;5053765;28;20684;-72
2023/02/10 01:35:09;;;;;;;13.32;9.13;;;;;6.70;103359.00;;;;5051344;28;20677;-72
2023/02/10 01:37:37;;;;;;;11.55;8.48;;;;;6.70;103365.00;;;;5056590;28;20210;-72
2023/02/10 01:40:06;;;;;;;11.18;7.85;;;;;6.70;103349.00;;;;5060042;28;20230;-72
2023/02/10 01:42:33;;;;;;;12.50;8.60;;;;;6.70;103344.00;;;;5047699;28;20202;-72
2023/02/10 01:45:19;;;;;;;14.48;8.45;;;;;6.60;103342.00;;;;5060929;28;20203;-72
2023/02/10 01:47:50;;;;;;;11.48;7.63;;;;;6.70;103344.00;;;;5054049;28;20222;-72
2023/02/10 01:50:19;;;;;;;12.95;8.15;;;;;6.70;103341.00;;;;5062876;28;20194;-72
2023/02/10 01:52:47;;;;;;;13.82;8.18;;;;;6.70;103344.00;;;;5055354;28;20200;-72
2023/02/10 01:55:18;;;;;;;12.13;8.30;;;;;6.70;103349.00;;;;5048416;28;20204;-72
2023/02/10 01:57:48;;;;;;;12.50;8.15;;;;;6.70;103345.00;;;;5050766;28;20192;-72
2023/02/10 02:00:17;;;;;;;12.60;8.65;;;;;6.70;103353.00;;;;5049291;28;20726;-72
2023/02/10 02:02:46;;;;;;;11.63;8.25;;;;;6.70;103349.00;;;;5049616;28;20203;-72
2023/02/10 02:05:23;;;;;;;14.88;8.45;;;;;6.60;103348.00;;;;5057532;28;20198;-72
2023/02/10 02:07:50;;;;;;;13.40;8.70;;;;;6.70;103347.00;;;;5054703;28;20617;-72
2023/02/10 02:10:18;;;;;;;15.02;9.05;;;;;6.70;103362.00;;;;5061543;28;20210;-72
2023/02/10 02:12:55;;;;;;;14.10;9.13;;;;;6.60;103354.00;;;;5058517;28;20198;-73
2023/02/10 02:15:34;;;;;;;12.90;8.02;;;;;6.60;103361.00;;;;5064539;28;20191;-72
2023/02/10 02:18:09;;;;;;;12.23;7.97;;;;;6.60;103359.00;;;;5050689;28;20212;-72
2023/02/10 02:21:11;;;;;;;12.75;8.15;;;;;6.60;103361.00;;;;5062635;28;20194;-72
2023/02/10 02:24:15;;;;;;;11.98;7.68;;;;;6.50;103356.00;;;;5053579;28;20199;-72
2023/02/10 02:27:10;;;;;;;12.32;7.72;;;;;6.50;103362.00;;;;5047647;28;20206;-72
2023/02/10 02:30:03;;;;;;;11.43;7.47;;;;;6.50;103352.00;;;;5044106;28;20209;-72
2023/02/10 02:32:34;;;;;;;12.25;7.40;;;;;6.60;103344.00;;;;5052452;28;20658;-73
2023/02/10 02:35:05;;;;;;;14.32;8.68;;;;;6.60;103347.00;;;;5063507;28;20246;-72
2023/02/10 02:37:34;;;;;;;13.32;8.43;;;;;6.60;103354.00;;;;5059791;28;20598;-72
2023/02/10 02:40:02;;;;;;;13.10;7.65;;;;;6.60;103349.00;;;;5052111;28;20227;-72
2023/02/10 02:42:31;;;;;;;11.35;7.68;;;;;6.60;103358.00;;;;5051610;28;20207;-72
2023/02/10 02:45:01;;;;;;;14.55;8.57;;;;;6.50;103363.00;;;;5067998;28;20210;-73
2023/02/10 02:47:45;;;;;;;14.20;8.55;;;;;6.50;103362.00;;;;5061661;28;20253;-73
2023/02/10 02:50:24;;;;;;;13.40;8.60;;;;;6.50;103358.00;;;;5056077;28;20199;-72
2023/02/10 02:53:10;;;;;;;14.02;8.63;;;;;6.40;103370.00;;;;5065814;28;20203;-73
2023/02/10 02:55:48;;;;;;;11.20;7.82;;;;;6.50;103376.00;;;;5053415;28;20660;-73
2023/02/10 02:58:24;;;;;;;13.57;8.40;;;;;6.50;103374.00;;;;5064975;28;20571;-73
2023/02/10 03:00:54;;;;;;;14.88;7.65;;;;;6.50;103374.00;;;;5052826;28;20390;-72
2023/02/10 03:03:23;;;;;;;10.65;7.53;;;;;6.50;103371.00;;;;5053403;28;20250;-72
2023/02/10 03:05:50;;;;;;;13.02;7.53;;;;;6.50;103364.00;;;;5060619;28;20206;-72
2023/02/10 03:08:18;;;;;;;11.90;7.47;;;;;6.50;103372.00;;;;5053302;28;20195;-72
2023/02/10 03:10:45;;;;;;;11.27;8.00;;;;;6.50;103365.00;;;;5067393;28;20214;-72
2023/02/10 03:13:12;;;;;;;13.18;7.55;;;;;6.60;103366.00;;;;5069656;28;20234;-73
2023/02/10 03:15:39;;;;;;;11.40;7.97;;;;;6.60;103364.00;;;;5060376;28;20191;-73
2023/02/10 03:18:07;;;;;;;9.73;7.57;;;;;6.60;103362.00;;;;5069543;28;20197;-73
2023/02/10 03:20:35;;;;;;;12.48;7.10;;;;;6.60;103357.00;;;;5061615;28;20226;-73
2023/02/10 03:23:02;;;;;;;11.13;7.72;;;;;6.60;103365.00;;;;5057759;28;20194;-73
2023/02/10 03:25:30;;;;;;;18.67;6.75;;;;;6.60;103371.00;;;;5069678;28;20206;-73
2023/02/10 03:27:57;;;;;;;9.52;7.15;;;;;6.60;103368.00;;;;5052691;28;20543;-73
2023/02/10 03:30:25;;;;;;;17.13;7.82;;;;;6.60;103364.00;;;;5063291;28;20575;-73
2023/02/10 03:32:53;;;;;;;8.70;6.35;;;;;6.60;103370.00;;;;5054269;28;20431;-73
2023/02/10 03:35:20;;;;;;;9.07;6.63;;;;;6.60;103371.00;;;;5054216;28;20199;-74
2023/02/10 03:37:49;;;;;;;10.23;7.22;;;;;6.60;103375.00;;;;5058302;28;20199;-73
2023/02/10 03:40:16;;;;;;;8.20;5.93;;;;;6.60;103373.00;;;;5059586;28;20324;-73
2023/02/10 03:42:43;;;;;;;11.18;6.68;;;;;6.60;103376.00;;;;5060080;28;20199;-73
2023/02/10 03:45:11;;;;;;;9.93;7.15;;;;;6.60;103376.00;;;;5068263;28;20206;-73
2023/02/10 03:47:38;;;;;;;9.52;6.75;;;;;6.60;103372.00;;;;5051678;28;20232;-73
2023/02/10 03:50:05;;;;;;;9.32;6.97;;;;;6.60;103368.00;;;;5067958;28;20195;-73
2023/02/10 03:52:33;;;;;;;11.23;7.47;;;;;6.60;103371.00;;;;5061699;28;20199;-73
2023/02/10 03:55:01;;;;;;;8.88;6.57;;;;;6.60;103374.00;;;;5069448;28;20278;-73
2023/02/10 03:57:28;;;;;;;10.35;7.05;;;;;6.60;103371.00;;;;5057221;28;20191;-73
2023/02/10 03:59:56;;;;;;;9.35;6.75;;;;;6.60;103371.00;;;;5056347;28;20235;-73
2023/02/10 04:02:23;;;;;;;10.68;7.63;;;;;6.60;103380.00;;;;5057152;28;20226;-73
2023/02/10 04:04:50;;;;;;;11.32;7.55;;;;;6.60;103371.00;;;;5053468;28;20199;-73
2023/02/10 04:07:18;;;;;;;9.85;7.28;;;;;6.50;103368.00;;;;5068000;28;20199;-73
2023/02/10 04:09:45;;;;;;;10.05;6.10;;;;;6.50;103376.00;;;;5065150;28;20256;-74
2023/02/10 04:12:14;;;;;;;9.00;7.03;;;;;6.50;103377.00;;;;5055747;28;20570;-74
2023/02/10 04:14:41;;;;;;;8.43;6.35;;;;;6.50;103382.00;;;;5065594;28;20561;-75
2023/02/10 04:17:08;;;;;;;8.15;6.28;;;;;6.50;103371.00;;;;5049694;28;20203;-74
2023/02/10 04:19:36;;;;;;;7.85;6.18;;;;;6.50;103379.00;;;;5050584;28;20207;-74
2023/02/10 04:22:03;;;;;;;8.85;6.38;;;;;6.50;103382.00;;;;5060234;28;20206;-74
2023/02/10 04:24:30;;;;;;;9.07;7.22;;;;;6.50;103383.00;;;;5066131;28;20211;-74
2023/02/10 04:26:58;;;;;;;9.20;6.68;;;;;6.50;103381.00;;;;5055675;28;20191;-74
2023/02/10 04:29:26;;;;;;;10.57;6.65;;;;;6.50;103379.00;;;;5057579;28;20208;-72
2023/02/10 04:31:54;;;;;;;10.85;7.25;;;;;6.50;103382.00;;;;5052705;28;20207;-72
2023/02/10 04:34:21;;;;;;;13.18;7.95;;;;;6.40;103375.00;;;;5060619;28;20782;-72
2023/02/10 04:36:48;;;;;;;10.10;7.07;;;;;6.40;103390.00;;;;5067922;28;20194;-72
2023/02/10 04:39:15;;;;;;;10.13;7.00;;;;;6.40;103391.00;;;;5065941;28;20230;-71
2023/02/10 04:41:43;;;;;;;10.10;7.40;;;;;6.40;103390.00;;;;5049945;28;20196;-72
2023/02/10 04:44:10;;;;;;;11.07;7.18;;;;;6.40;103392.00;;;;5053067;28;20571;-72
2023/02/10 04:46:38;;;;;;;11.23;7.50;;;;;6.40;103396.00;;;;5057413;28;20226;-72
2023/02/10 04:49:06;;;;;;;10.82;8.05;;;;;6.40;103390.00;;;;5059405;28;20192;-72
2023/02/10 04:51:33;;;;;;;11.13;7.78;;;;;6.40;103398.00;;;;5060820;28;20230;-72
2023/02/10 04:54:00;;;;;;;11.50;7.63;;;;;6.30;103398.00;;;;5053637;28;20765;-72
2023/02/10 04:56:28;;;;;;;11.65;7.60;;;;;6.30;103401.00;;;;5048003;28;20646;-72
2023/02/10 04:58:55;;;;;;;11.57;7.63;;;;;6.30;103390.00;;;;5056513;28;20218;-72
2023/02/10 05:01:22;;;;;;;9.55;7.13;;;;;6.30;103387.00;;;;5057416;28;20199;-72
2023/02/10 05:03:51;;;;;;;9.57;7.00;;;;;6.30;103377.00;;;;5067047;28;20577;-72
2023/02/10 05:06:18;;;;;;;12.88;8.23;;;;;6.30;103367.00;;;;5053340;28;20196;-72
2023/02/10 05:08:46;;;;;;;12.27;8.05;;;;;6.30;103369.00;;;;5062832;28;20615;-72
2023/02/10 05:11:15;;;;;;;12.52;7.65;;;;;6.20;103363.00;;;;5067023;28;20195;-72
2023/02/10 05:13:42;;;;;;;10.65;7.57;;;;;6.30;103368.00;;;;5055811;28;20205;-72
2023/02/10 05:16:11;;;;;;;11.73;7.70;;;;;6.20;103368.00;;;;5055416;28;20701;-72
2023/02/10 05:18:40;;;;;;;10.30;6.88;;;;;6.20;103364.00;;;;5051205;28;20214;-72
2023/02/10 05:21:10;;;;;;;11.98;7.80;;;;;6.20;103369.00;;;;5064230;28;20234;-72
2023/02/10 05:23:37;;;;;;;9.70;7.20;;;;;6.20;103371.00;;;;5067349;28;20195;-72
2023/02/10 05:26:05;;;;;;;11.75;7.65;;;;;6.20;103379.00;;;;5065673;28;20653;-72
2023/02/10 05:28:32;;;;;;;12.20;7.68;;;;;6.20;103382.00;;;;5064267;28;20199;-72
2023/02/10 05:30:59;;;;;;;10.60;7.15;;;;;6.20;103377.00;;;;5056872;28;20206;-72
2023/02/10 05:33:27;;;;;;;10.57;7.90;;;;;6.20;103382.00;;;;5049643;28;20206;-72
2023/02/10 05:35:54;;;;;;;10.90;7.55;;;;;6.20;103379.00;;;;5055588;28;20195;-71
2023/02/10 05:38:22;;;;;;;12.38;8.32;;;;;6.20;103384.00;;;;5060441;28;20575;-71
2023/02/10 05:40:50;;;;;;;12.30;7.75;;;;;6.20;103386.00;;;;5055557;28;20216;-72
2023/02/10 05:43:17;;;;;;;11.10;7.80;;;;;6.20;103388.00;;;;5053321;28;20674;-72
2023/02/10 05:45:47;;;;;;;12.05;8.02;;;;;6.20;103388.00;;;;5052070;28;20187;-72
2023/02/10 05:48:14;;;;;;;14.23;8.82;;;;;6.20;103388.00;;;;5051773;28;21386;-72
2023/02/10 05:50:41;;;;;;;11.90;8.40;;;;;6.20;103389.00;;;;5057510;28;20225;-71
2023/02/10 05:53:09;;;;;;;15.75;9.13;;;;;6.20;103386.00;;;;5055337;28;20196;-72
2023/02/10 05:55:38;;;;;;;13.80;8.48;;;;;6.20;103379.00;;;;5055577;28;20218;-72
2023/02/10 05:58:05;;;;;;;14.23;8.98;;;;;6.30;103373.00;;;;5063560;28;20213;-72
2023/02/10 06:00:32;;;;;;;11.88;8.57;;;;;6.30;103374.00;;;;5047425;28;20215;-72
2023/02/10 06:03:01;;;;;;;11.85;8.32;;;;;6.30;103380.00;;;;5065098;28;20330;-72
2023/02/10 06:05:28;;;;;;;13.65;9.10;;;;;6.30;103381.00;;;;5059620;28;20568;-72
2023/02/10 06:07:55;;;;;;;12.63;8.65;;;;;6.40;103384.00;;;;5050850;28;20542;-73
2023/02/10 06:10:23;;;;;;;13.95;8.82;;;;;6.40;103382.00;;;;5061247;28;20204;-73
2023/02/10 06:12:51;;;;;;;13.60;9.15;;;;;6.40;103381.00;;;;5056781;28;20271;-73
2023/02/10 06:15:19;;;;;;;13.00;8.65;;;;;6.40;103376.00;;;;5064235;28;20534;-72
2023/02/10 06:17:46;;;;;;;12.50;8.73;;;;;6.50;103388.00;;;;5056601;28;20246;-73
2023/02/10 06:20:13;;;;;;;12.73;9.05;;;;;6.50;103383.00;;;;5071489;28;20704;-74
2023/02/10 06:22:40;;;;;;;14.13;9.40;;;;;6.60;103382.00;;;;5053658;28;20192;-73
2023/02/10 06:25:08;;;;;;;16.20;9.40;;;;;6.60;103383.00;;;;5058890;28;20207;-74
2023/02/10 06:27:35;;;;;;;15.00;8.63;;;;;6.60;103384.00;;;;5061704;28;20696;-73
2023/02/10 06:30:05;;;;;;;13.48;9.25;;;;;6.70;103395.00;;;;5072245;28;20199;-73
2023/02/10 06:32:32;;;;;;;12.23;8.60;;;;;6.70;103399.00;;;;5066941;28;20241;-73
2023/02/10 06:34:59;;;;;;;12.85;8.48;;;;;6.80;103402.00;;;;5063890;28;20561;-72
2023/02/10 06:37:26;;;;;;;12.88;8.43;;;;;6.80;103404.00;;;;5058998;28;20203;-73
2023/02/10 06:39:54;;;;;;;12.35;8.43;;;;;6.90;103410.00;;;;5057100;28;20224;-73
2023/02/10 06:42:21;;;;;;;13.25;8.88;;;;;6.90;103394.00;;;;5058001;28;20195;-73
2023/02/10 06:44:48;;;;;;;12.18;8.43;;;;;7.00;103411.00;;;;5057542;28;20199;-73
2023/02/10 06:47:17;;;;;;;15.50;9.07;;;;;7.00;103395.00;;;;5052192;28;20254;-73
2023/02/10 06:49:44;;;;;;;11.35;8.45;;;;;7.00;103409.00;;;;5061365;28;20195;-72
2023/02/10 06:52:11;;;;;;;10.90;7.88;;;;;7.10;103414.00;;;;5064979;28;20199;-73
2023/02/10 06:54:39;;;;;;;10.55;7.57;;;;;7.10;103404.00;;;;5049591;28;20204;-73
2023/02/10 06:57:06;;;;;;;13.68;9.10;;;;;7.10;103409.00;;;;5055330;28;20296;-73
2023/02/10 06:59:33;;;;;;;16.92;8.32;;;;;7.20;103409.00;;;;5056481;28;20217;-72
2023/02/10 07:02:02;;;;;;;13.90;9.10;;;;;7.20;103413.00;;;;5067049;28;20206;-73
2023/02/10 07:04:31;;;;;;;12.93;8.70;;;;;7.20;103416.00;;;;5051543;28;20239;-72
2023/02/10 07:06:59;;;;;;;10.65;7.90;;;;;7.20;103430.00;;;;5050246;28;20196;-72
2023/02/10 07:09:26;;;;;;;13.50;8.35;;;;;7.30;103427.00;;;;5050334;28;20200;-72
2023/02/10 07:11:54;;;;;;;12.25;8.30;;;;;7.30;103425.00;;;;5049229;28;20594;-72
2023/02/10 07:14:22;;;;;;;12.73;8.20;;;;;7.30;103424.00;;;;5048660;28;20207;-72
2023/02/10 07:16:49;;;;;;;14.68;7.32;;;;;7.30;103413.00;;;;5049543;28;20211;-72
2023/02/10 07:19:16;;;;;;;12.48;7.63;;;;;7.30;103420.00;;;;5061313;28;20214;-72
2023/02/10 07:21:45;;;;;;;14.40;7.47;;;;;7.30;103421.00;;;;5053007;28;20215;-73
2023/02/10 07:24:14;;;;;;;9.90;7.63;;;;;7.40;103418.00;;;;5049735;28;20207;-72
2023/02/10 07:26:41;;;;;;;15.82;7.55;;;;;7.40;103417.00;;;;5049797;28;20218;-72
2023/02/10 07:29:09;;;;;;;11.07;7.75;;;;;7.40;103418.00;;;;5049525;28;20215;-73
2023/02/10 07:31:36;;;;;;;12.73;8.75;;;;;7.40;103408.00;;;;5049511;28;20203;-72
2023/02/10 07:34:04;;;;;;;11.25;8.07;;;;;7.40;103426.00;;;;5049819;28;20249;-72
2023/02/10 07:36:31;;;;;;;11.32;7.82;;;;;7.50;103432.00;;;;5060927;28;20581;-72
2023/02/10 07:39:00;;;;;;;10.48;7.53;;;;;7.50;103432.00;;;;5056741;28;20218;-73
2023/02/10 07:41:27;;;;;;;12.45;8.77;;;;;7.50;103440.00;;;;5050009;28;20629;-73
2023/02/10 07:43:54;;;;;;;11.57;8.18;;;;;7.60;103447.00;;;;5051034;28;20199;-73
2023/02/10 07:46:22;;;;;;;12.32;8.52;;;;;7.60;103441.00;;;;5068177;28;20218;-72
2023/02/10 07:48:49;;;;;;;12.63;8.32;;;;;7.60;103450.00;;;;5050245;28;20195;-73
2023/02/10 07:51:16;;;;;;;12.95;8.52;;;;;7.60;103463.00;;;;5050590;28;20587;-72
2023/02/10 07:53:43;;;;;;;10.68;7.63;;;;;7.70;103465.00;;;;5063973;28;20572;-73
2023/02/10 07:56:12;;;;;;;11.40;7.78;;;;;7.70;103463.00;;;;5069091;28;20195;-73
2023/02/10 07:58:40;;;;;;;10.43;7.90;;;;;7.70;103465.00;;;;5062697;28;20210;-73
2023/02/10 08:01:08;;;;;;;11.90;8.32;;;;;7.70;103466.00;;;;5055551;28;20223;-73
2023/02/10 08:03:35;;;;;;;12.02;8.80;;;;;7.80;103474.00;;;;5053534;28;20207;-72
2023/02/10 08:06:03;;;;;;;12.00;8.00;;;;;7.80;103485.00;;;;5050276;28;20194;-73
2023/02/10 08:08:30;;;;;;;9.95;7.40;;;;;7.80;103480.00;;;;5050141;28;20213;-73
2023/02/10 08:10:57;;;;;;;11.65;7.90;;;;;7.80;103471.00;;;;5051849;28;20199;-73
2023/02/10 08:13:27;;;;;;;14.10;9.40;;;;;7.80;103462.00;;;;5051780;28;20295;-72
2023/02/10 08:15:54;;;;;;;13.30;8.63;;;;;7.90;103463.00;;;;5067377;28;20206;-72
2023/02/10 08:18:21;;;;;;;12.45;8.57;;;;;7.90;103464.00;;;;5053944;28;20199;-72
2023/02/10 08:20:49;;;;;;;13.95;8.85;;;;;7.90;103467.00;;;;5053645;28;20226;-73
2023/02/10 08:23:18;;;;;;;12.15;8.77;;;;;7.90;103469.00;;;;5068984;28;20198;-72
2023/02/10 08:25:46;;;;;;;12.70;8.65;;;;;8.00;103458.00;;;;5052285;28;20200;-73
2023/02/10 08:28:13;;;;;;;12.63;8.68;;;;;8.00;103455.00;;;;5051612;28;20206;-73
2023/02/10 08:30:43;;;;;;;13.02;8.98;;;;;8.00;103457.00;;;;5056025;28;20199;-73
2023/02/10 08:33:10;;;;;;;13.63;9.07;;;;;8.10;103451.00;;;;5063121;28;20198;-73
2023/02/10 08:35:38;;;;;;;12.32;9.15;;;;;8.10;103462.00;;;;5058507;28;20595;-73
2023/02/10 08:38:06;;;;;;;15.50;9.43;;;;;8.10;103478.00;;;;5057658;28;20203;-74
2023/02/10 08:40:33;;;;;;;16.05;10.60;;;;;8.20;103468.00;;;;5055199;28;20234;-73
2023/02/10 08:43:00;;;;;;;14.50;9.77;;;;;8.20;103463.00;;;;5049098;28;20215;-73
2023/02/10 08:45:28;;;;;;;13.95;9.80;;;;;8.20;103470.00;;;;5052840;28;20198;-74
2023/02/10 08:47:57;;;;;;;16.58;11.02;;;;;8.20;103470.00;;;;5068247;28;20238;-73
2023/02/10 08:50:24;;;;;;;15.02;10.00;;;;;8.30;103474.00;;;;5053013;28;20675;-74
2023/02/10 08:52:51;;;;;;;15.70;10.45;;;;;8.30;103471.00;;;;5061720;28;20234;-73
2023/02/10 08:55:19;;;;;;;17.75;11.15;;;;;8.40;103477.00;;;;5059406;28;20431;-74
2023/02/10 08:57:46;;;;;;;16.55;11.15;;;;;8.40;103473.00;;;;5052425;28;20584;-74
2023/02/10 09:00:16;;;;;;;16.27;10.50;;;;;8.40;103476.00;;;;5061747;28;20218;-74
2023/02/10 09:02:43;;;;;;;14.85;10.15;;;;;8.40;103479.00;;;;5054516;28;20195;-74
2023/02/10 09:05:12;;;;;;;14.30;9.57;;;;;8.50;103485.00;;;;5048389;28;20672;-73
2023/02/10 09:07:39;;;;;;;15.07;10.20;;;;;8.50;103477.00;;;;5062462;28;20662;-74
2023/02/10 09:10:09;;;;;;;14.90;10.07;;;;;8.50;103479.00;;;;5051494;28;20260;-74
2023/02/10 09:12:37;;;;;;;16.35;10.50;;;;;8.60;103484.00;;;;5062635;28;20199;-74
2023/02/10 09:15:04;;;;;;;15.45;10.35;;;;;8.60;103489.00;;;;5067860;28;20198;-73
2023/02/10 09:17:32;;;;;;;16.45;10.52;;;;;8.60;103491.00;;;;5048666;28;20203;-74
2023/02/10 09:19:59;;;;;;;15.35;10.48;;;;;8.60;103483.00;;;;5050558;28;20204;-74
2023/02/10 09:22:28;;;;;;;17.30;11.90;;;;;8.60;103488.00;;;;5063322;28;20226;-74
2023/02/10 09:24:55;;;;;;;17.60;10.70;;;;;8.70;103488.00;;;;5049038;28;20207;-73
2023/02/10 09:27:22;;;;;;;21.52;12.38;;;;;8.70;103491.00;;;;5059811;28;20207;-74
2023/02/10 09:29:50;;;;;;;18.90;12.02;;;;;8.80;103499.00;;;;5048245;28;20216;-73
2023/02/10 09:32:17;;;;;;;20.05;12.52;;;;;8.80;103499.00;;;;5057611;28;20203;-73
2023/02/10 09:34:45;;;;;;;16.92;10.77;;;;;8.90;103501.00;;;;5067431;28;20214;-73
2023/02/10 09:37:12;;;;;;;17.58;11.57;;;;;8.90;103503.00;;;;5065229;28;20199;-73
2023/02/10 09:39:41;;;;;;;18.50;11.98;;;;;8.90;103494.00;;;;5059463;28;20209;-73
2023/02/10 09:42:17;;;;;;;22.35;11.88;;;;;9.00;103499.00;;;;5061499;28;20226;-74
2023/02/10 09:44:52;;;;;;;16.90;10.70;;;;;9.00;103514.00;;;;5050379;28;20211;-73
2023/02/10 09:47:37;;;;;;;18.17;11.73;;;;;9.00;103504.00;;;;5064180;28;20230;-73
2023/02/10 09:50:20;;;;;;;20.30;11.88;;;;;9.10;103510.00;;;;5063179;28;20191;-74
2023/02/10 09:52:59;;;;;;;18.10;11.50;;;;;9.10;103512.00;;;;5069095;28;20240;-74
2023/02/10 09:55:31;;;;;;;17.63;11.18;;;;;9.20;103508.00;;;;5053838;28;20194;-73
2023/02/10 09:58:02;;;;;;;20.27;11.65;;;;;9.30;103499.00;;;;5064844;28;20191;-74
2023/02/10 10:00:34;;;;;;;16.73;11.57;;;;;9.40;103499.00;;;;5061710;28;20223;-73
2023/02/10 10:03:04;;;;;;;18.70;10.43;;;;;9.40;103499.00;;;;5070491;28;20218;-74
2023/02/10 10:05:42;;;;;;;17.02;11.43;;;;;9.50;103497.00;;;;5067813;28;20203;-74
2023/02/10 10:08:19;;;;;;;17.63;11.48;;;;;9.50;103505.00;;;;5069792;28;20210;-74
2023/02/10 10:10:50;;;;;;;14.90;10.20;;;;;9.70;103497.00;;;;5065874;28;20553;-73
2023/02/10 10:13:23;;;;;;;15.73;9.52;;;;;9.70;103498.00;;;;5058693;28;20666;-73
2023/02/10 10:16:01;;;;;;;14.25;9.70;;;;;9.80;103501.00;;;;5067951;28;20203;-73
2023/02/10 10:18:39;;;;;;;16.58;10.23;;;;;9.80;103493.00;;;;5053089;28;20214;-74
2023/02/10 10:21:11;;;;;;;17.15;10.75;;;;;9.90;103495.00;;;;5070931;28;20233;-74
2023/02/10 10:23:52;;;;;;;17.17;10.48;;;;;9.90;103501.00;;;;5071700;28;20187;-74
2023/02/10 10:26:51;;;;;;;17.95;9.90;;;;;10.00;103500.00;;;;5069743;28;20202;-73
2023/02/10 10:29:27;;;;;;;15.48;9.35;;;;;10.10;103487.00;;;;5057869;28;20203;-74
2023/02/10 10:32:07;;;;;;;17.55;10.30;;;;;10.20;103485.00;;;;5057871;28;20210;-73
2023/02/10 10:34:39;;;;;;;15.70;10.15;;;;;10.30;103483.00;;;;5051413;28;20214;-74
2023/02/10 10:37:15;;;;;;;18.73;11.15;;;;;10.30;103485.00;;;;5057446;28;20199;-74
2023/02/10 10:39:45;;;;;;;13.85;9.27;;;;;10.50;103474.00;;;;5052676;28;20210;-74
2023/02/10 10:42:21;;;;;;;17.23;10.65;;;;;10.50;103481.00;;;;5050748;28;20220;-73
2023/02/10 10:44:50;;;;;;;16.85;10.32;;;;;10.60;103473.00;;;;5062080;28;20205;-74
2023/02/10 10:47:21;;;;;;;19.77;11.00;;;;;10.70;103465.00;;;;5070748;28;20226;-74
2023/02/10 10:49:48;;;;;;;19.52;12.13;;;;;10.80;103469.00;;;;5069613;28;20203;-73
2023/02/10 10:52:28;;;;;;;19.90;11.32;;;;;10.70;103475.00;;;;5071488;28;20209;-73
2023/02/10 10:54:56;;;;;;;17.70;10.73;;;;;10.90;103472.00;;;;5070160;28;20197;-74
2023/02/10 10:57:26;;;;;;;17.52;10.85;;;;;10.90;103482.00;;;;5071748;28;20194;-74
2023/02/10 10:59:59;;;;;;;16.00;10.80;;;;;11.00;103482.00;;;;5057886;28;20423;-71
2023/02/10 11:02:26;;;;;;;17.55;10.95;;;;;11.10;103485.00;;;;5069169;28;20227;-71
2023/02/10 11:05:05;;;;;;;16.52;10.27;;;;;11.10;103482.00;;;;5070860;28;20241;-71
2023/02/10 11:07:34;;;;;;;15.93;10.55;;;;;11.20;103482.00;;;;5069840;28;20199;-74
2023/02/10 11:10:01;;;;;;;16.35;9.65;;;;;11.30;103480.00;;;;5069379;28;20210;-74
2023/02/10 11:12:35;;;;;;;17.70;10.27;;;;;11.30;103475.00;;;;5068601;28;20683;-73
2023/02/10 11:15:24;;;;;;;14.43;8.85;;;;;11.40;103474.00;;;;5070339;28;20579;-73
2023/02/10 11:17:52;;;;;;;15.70;9.93;;;;;11.50;103473.00;;;;5070255;28;20214;-74
2023/02/10 11:20:25;;;;;;;14.60;9.25;;;;;11.60;103477.00;;;;5071367;28;20218;-73
2023/02/10 11:22:58;;;;;;;16.08;10.00;;;;;11.60;103469.00;;;;5070783;28;20348;-73
2023/02/10 11:25:29;;;;;;;18.10;10.38;;;;;11.80;103471.00;;;;5067291;28;20218;-73
2023/02/10 11:27:59;;;;;;;16.13;9.88;;;;;11.80;103470.00;;;;5069779;28;20218;-73
2023/02/10 11:30:28;;;;;;;18.35;10.45;;;;;12.00;103474.00;;;;5070447;28;20213;-73
2023/02/10 11:32:56;;;;;;;20.35;11.20;;;;;12.00;103463.00;;;;5069745;28;20661;-73
2023/02/10 11:35:24;;;;;;;16.75;9.65;;;;;12.10;103464.00;;;;5051579;28;20214;-73
2023/02/10 11:37:55;;;;;;;15.73;9.88;;;;;12.20;103462.00;;;;5051347;28;20227;-71
2023/02/10 11:40:24;;;;;;;16.83;11.25;;;;;12.30;103449.00;;;;5068960;28;20200;-71
2023/02/10 11:42:53;;;;;;;18.25;10.07;;;;;12.40;103448.00;;;;5049349;28;20223;-71
2023/02/10 11:45:24;;;;;;;15.73;9.93;;;;;12.50;103447.00;;;;5050175;28;20207;-72
2023/02/10 11:48:02;;;;;;;16.80;10.15;;;;;12.60;103440.00;;;;5049365;28;20227;-72
2023/02/10 11:50:32;;;;;;;15.20;9.77;;;;;12.80;103445.00;;;;5050657;28;20265;-72
2023/02/10 11:52:59;;;;;;;14.13;8.55;;;;;12.80;103439.00;;;;5050239;28;20203;-72
2023/02/10 11:55:35;;;;;;;15.13;9.27;;;;;12.90;103434.00;;;;5050163;28;20194;-72
2023/02/10 12:01:15;;;;;;;13.93;8.30;;;;;13.00;103444.00;;;;5049038;28;20272;-72
2023/02/10 12:04:02;;;;;;;16.25;8.85;;;;;13.10;103441.00;;;;5063028;28;20583;-72
2023/02/10 12:06:36;;;;;;;14.90;8.82;;;;;13.20;103446.00;;;;5069594;28;20248;-71
2023/02/10 12:09:11;;;;;;;15.32;8.52;;;;;13.20;103439.00;;;;5053446;28;20648;-71
2023/02/10 12:11:47;;;;;;;14.63;9.50;;;;;13.30;103433.00;;;;5049112;28;20199;-71
2023/02/10 12:14:32;;;;;;;18.20;9.85;;;;;13.30;103425.00;;;;5049714;28;20198;-71
2023/02/10 12:17:14;;;;;;;16.17;9.15;;;;;13.40;103424.00;;;;5049439;28;20196;-71
2023/02/10 12:19:48;;;;;;;19.80;9.35;;;;;13.50;103421.00;;;;5048904;28;20199;-71
2023/02/10 12:22:25;;;;;;;18.48;9.45;;;;;13.50;103416.00;;;;5049596;28;20227;-71